Time;durP1;ratioP1;P1;durP2;ratioP2;P2;SDS_P1;SDS_P2;PMS_P1;PMS_P2;Temp;Humidity;BMP_temperature;BMP_pressure;BME280_temperature;BME280_humidity;BME280_pressure;Samples;Min_cycle;Max_cycle;Signal;HPM_P1;HPM_P2
2022/04/14 00:00:56;;;;;;;4.65;3.90;;;;;;;15.01;65.24;98671.94;4155369;28;20204;-56
2022/04/14 00:02:58;;;;;;;5.03;4.53;;;;;;;15.00;65.36;98666.69;4157754;28;20205;-56
2022/04/14 00:05:00;;;;;;;4.45;4.05;;;;;;;14.97;65.39;98659.81;4152909;28;20232;-56
2022/04/14 00:07:03;;;;;;;7.68;5.32;;;;;;;14.96;65.09;98658.16;4171146;28;20207;-57
2022/04/14 00:09:05;;;;;;;5.68;4.57;;;;;;;14.97;65.19;98668.06;4150670;28;20209;-56
2022/04/14 00:11:06;;;;;;;4.93;4.05;;;;;;;14.96;65.15;98665.59;4156392;28;20204;-56
2022/04/14 00:13:08;;;;;;;7.90;5.03;;;;;;;14.95;65.28;98673.03;4150624;28;20201;-55
2022/04/14 00:15:11;;;;;;;6.32;5.30;;;;;;;14.94;65.04;98674.16;4170836;28;20224;-56
2022/04/14 00:17:12;;;;;;;5.75;5.20;;;;;;;14.92;65.39;98673.59;4157016;28;20205;-56
2022/04/14 00:19:14;;;;;;;6.80;5.25;;;;;;;14.90;65.52;98678.53;4156106;28;20908;-56
2022/04/14 00:21:16;;;;;;;5.20;4.80;;;;;;;14.83;65.46;98674.41;4150598;28;20622;-56
2022/04/14 00:23:18;;;;;;;5.63;5.05;;;;;;;14.80;65.53;98675.78;4156124;28;20212;-55
2022/04/14 00:25:19;;;;;;;4.78;4.28;;;;;;;14.77;65.79;98678.25;4173679;28;20273;-55
2022/04/14 00:27:21;;;;;;;6.07;5.53;;;;;;;14.78;65.69;98666.97;4153034;28;20209;-56
2022/04/14 00:29:23;;;;;;;5.85;5.35;;;;;;;14.72;66.19;98676.31;4174230;28;20267;-56
2022/04/14 00:31:24;;;;;;;5.07;4.57;;;;;;;14.71;66.09;98676.59;4156015;28;20205;-56
2022/04/14 00:33:26;;;;;;;5.78;4.68;;;;;;;14.69;65.83;98687.88;4160450;28;20283;-56
2022/04/14 00:35:28;;;;;;;5.85;5.25;;;;;;;14.69;65.71;98679.59;4174762;28;20219;-56
2022/04/14 00:37:30;;;;;;;6.75;5.95;;;;;;;14.66;65.83;98691.19;4155066;28;20643;-56
2022/04/14 00:39:31;;;;;;;5.82;5.32;;;;;;;14.63;66.03;98686.19;4175128;28;20747;-56
2022/04/14 00:41:33;;;;;;;5.13;4.43;;;;;;;14.62;66.16;98683.75;4156217;28;20904;-56
2022/04/14 00:43:35;;;;;;;6.22;5.63;;;;;;;14.63;66.20;98686.19;4172935;28;20674;-55
2022/04/14 00:45:37;;;;;;;5.97;5.47;;;;;;;14.65;66.13;98685.94;4152336;28;20218;-55
2022/04/14 00:47:38;;;;;;;6.15;5.65;;;;;;;14.73;66.26;98699.16;4173156;28;20267;-56
2022/04/14 00:49:41;;;;;;;6.30;5.80;;;;;;;14.78;66.21;98688.16;4160600;28;20216;-55
2022/04/14 00:51:42;;;;;;;8.50;7.40;;;;;;;14.68;66.86;98688.13;4171736;28;20208;-56
2022/04/14 00:53:44;;;;;;;8.50;7.78;;;;;;;14.68;67.01;98683.47;4158404;28;20279;-54
2022/04/14 00:55:46;;;;;;;12.10;9.90;;;;;;;14.67;67.31;98681.81;4143676;28;20288;-55
2022/04/14 00:57:48;;;;;;;9.43;8.30;;;;;;;14.79;66.68;98685.16;4157225;28;20212;-56
2022/04/14 00:59:49;;;;;;;9.25;8.20;;;;;;;14.75;66.27;98695.06;4171428;28;20208;-55
2022/04/14 01:01:51;;;;;;;11.50;10.52;;;;;;;14.70;67.29;98691.47;4153446;28;20212;-56
2022/04/14 01:03:54;;;;;;;10.25;9.35;;;;;;;14.74;66.74;98696.16;4138888;28;20268;-55
2022/04/14 01:05:56;;;;;;;8.35;7.65;;;;;;;14.76;66.42;98696.69;4175852;28;20373;-55
2022/04/14 01:07:59;;;;;;;9.98;9.05;;;;;;;14.77;66.24;98692.03;4157626;28;20346;-55
2022/04/14 01:10:01;;;;;;;9.52;8.63;;;;;;;14.76;66.13;98696.69;4160609;28;20236;-55
2022/04/14 01:12:06;;;;;;;8.98;8.23;;;;;;;14.76;66.31;98691.19;4154287;28;20217;-56
2022/04/14 01:14:07;;;;;;;10.65;7.97;;;;;;;14.73;66.68;98702.78;4155461;28;20225;-56
2022/04/14 01:16:09;;;;;;;8.70;7.88;;;;;;;14.74;66.09;98704.41;4174786;28;20258;-56
2022/04/14 01:18:11;;;;;;;8.93;8.02;;;;;;;14.73;66.32;98701.94;4174680;28;20322;-55
2022/04/14 01:20:13;;;;;;;8.45;7.75;;;;;;;14.73;66.74;98699.16;4153386;28;20260;-56
2022/04/14 01:22:30;;;;;;;9.02;8.30;;;;;;;14.71;66.79;98710.47;4155267;28;20213;-56
2022/04/14 01:24:34;;;;;;;11.40;9.63;;;;;;;14.69;66.62;98701.66;4159529;28;20236;-56
2022/04/14 01:26:37;;;;;;;8.43;7.63;;;;;;;14.68;66.64;98701.91;4157375;28;20224;-55
2022/04/14 01:28:39;;;;;;;8.65;7.85;;;;;;;14.67;66.28;98706.59;4158965;28;20208;-55
2022/04/14 01:30:40;;;;;;;9.35;8.40;;;;;;;14.64;66.56;98704.38;4154844;28;20213;-56
2022/04/14 01:32:42;;;;;;;11.82;9.27;;;;;;;14.70;66.43;98711.56;4157543;28;20208;-56
2022/04/14 01:34:44;;;;;;;10.18;9.38;;;;;;;14.60;67.05;98711.56;4159785;28;20217;-56
2022/04/14 01:36:45;;;;;;;10.77;9.93;;;;;;;14.68;67.02;98716.53;4171208;28;20310;-56
2022/04/14 01:38:47;;;;;;;13.32;12.00;;;;;;;14.59;67.61;98712.66;4173070;28;20670;-56
2022/04/14 01:40:49;;;;;;;16.77;8.68;;;;;;;14.64;67.01;98720.91;4156643;28;20590;-56
2022/04/14 01:42:51;;;;;;;9.90;8.82;;;;;;;14.65;66.74;98722.59;4158826;28;20204;-56
2022/04/14 01:44:52;;;;;;;10.85;9.75;;;;;;;14.69;66.57;98720.94;4174133;28;20235;-55
2022/04/14 01:46:54;;;;;;;10.00;9.10;;;;;;;14.70;66.65;98719.81;4173685;28;20625;-56
2022/04/14 01:48:56;;;;;;;11.15;10.10;;;;;;;14.71;66.92;98715.97;4172755;28;20211;-55
2022/04/14 01:50:58;;;;;;;9.23;8.35;;;;;;;14.72;66.31;98722.31;4158831;28;20235;-56
2022/04/14 01:52:59;;;;;;;9.23;8.38;;;;;;;14.71;66.70;98721.47;4156779;28;20682;-56
2022/04/14 01:55:04;;;;;;;10.15;9.25;;;;;;;14.66;67.18;98724.25;4170170;28;20228;-56
2022/04/14 01:57:06;;;;;;;10.48;9.48;;;;;;;14.80;66.99;98730.88;4157759;28;20216;-56
2022/04/14 01:59:08;;;;;;;11.73;10.60;;;;;;;14.76;66.98;98729.75;4155900;28;20204;-56
2022/04/14 02:01:10;;;;;;;10.70;9.60;;;;;;;14.73;66.63;98730.31;4156289;28;20254;-56
2022/04/14 02:03:12;;;;;;;9.65;8.75;;;;;;;14.74;66.71;98736.63;4173176;28;20206;-56
2022/04/14 02:05:14;;;;;;;17.60;10.00;;;;;;;14.81;66.81;98738.06;4155659;28;20239;-56
2022/04/14 02:07:16;;;;;;;11.02;9.93;;;;;;;14.69;66.80;98734.69;4157707;28;20217;-56
2022/04/14 02:09:17;;;;;;;10.40;9.40;;;;;;;14.68;66.83;98733.06;4140087;28;20602;-56
2022/04/14 02:11:19;;;;;;;8.52;7.72;;;;;;;14.70;67.02;98732.78;4174632;28;20204;-55
2022/04/14 02:13:21;;;;;;;10.60;9.60;;;;;;;14.61;67.41;98726.97;4155956;28;20760;-56
2022/04/14 02:15:22;;;;;;;11.30;10.20;;;;;;;14.67;67.17;98731.41;4156899;28;20294;-55
2022/04/14 02:17:24;;;;;;;11.05;10.02;;;;;;;14.66;66.92;98728.91;4172874;28;20219;-56
2022/04/14 02:19:26;;;;;;;10.45;9.15;;;;;;;14.65;66.99;98730.84;4153915;28;20247;-56
2022/04/14 02:21:28;;;;;;;11.90;10.60;;;;;;;14.63;67.25;98727.53;4154543;28;20205;-56
2022/04/14 02:23:30;;;;;;;11.30;10.30;;;;;;;14.77;66.77;98730.59;4156346;28;20208;-56
2022/04/14 02:25:31;;;;;;;11.15;9.93;;;;;;;14.69;66.71;98723.69;4151463;28;20224;-56
2022/04/14 02:27:33;;;;;;;10.02;9.13;;;;;;;14.68;66.75;98738.56;4158509;28;20654;-55
2022/04/14 02:29:35;;;;;;;11.23;9.82;;;;;;;14.68;66.55;98734.97;4173134;28;20254;-56
2022/04/14 02:31:37;;;;;;;10.43;9.52;;;;;;;14.67;66.87;98738.81;4152144;28;20212;-56
2022/04/14 02:33:38;;;;;;;12.13;10.90;;;;;;;14.66;67.61;98740.75;4151693;28;20262;-56
2022/04/14 02:35:40;;;;;;;12.20;10.98;;;;;;;14.59;67.35;98742.09;4158073;28;20228;-56
2022/04/14 02:37:42;;;;;;;12.07;10.90;;;;;;;14.56;67.18;98743.47;4172505;28;20269;-57
2022/04/14 02:39:44;;;;;;;10.55;9.45;;;;;;;14.52;67.35;98739.63;4152452;28;20241;-58
2022/04/14 02:41:45;;;;;;;16.38;9.52;;;;;;;14.61;67.47;98738.00;4152026;28;20228;-55
2022/04/14 02:43:49;;;;;;;12.80;11.60;;;;;;;14.53;67.38;98749.53;4172595;28;20232;-55
2022/04/14 02:45:51;;;;;;;10.30;9.40;;;;;;;14.47;67.23;98747.84;4158626;28;20616;-55
2022/04/14 02:47:53;;;;;;;10.50;9.60;;;;;;;14.43;67.32;98757.75;4156102;28;20946;-55
2022/04/14 02:49:55;;;;;;;11.48;10.38;;;;;;;14.44;67.32;98759.38;4173820;28;20264;-57
2022/04/14 02:51:57;;;;;;;10.88;9.80;;;;;;;14.47;67.40;98745.09;4154221;28;20200;-57
2022/04/14 02:53:58;;;;;;;11.27;9.98;;;;;;;14.46;67.47;98762.72;4152362;28;20248;-57
2022/04/14 02:56:00;;;;;;;10.93;9.82;;;;;;;14.45;67.53;98750.06;4152635;28;20235;-57
2022/04/14 02:58:02;;;;;;;10.48;8.80;;;;;;;14.50;67.30;98744.53;4151218;28;20213;-58
2022/04/14 03:00:05;;;;;;;11.88;10.65;;;;;;;14.43;67.27;98756.94;4152947;28;20245;-57
2022/04/14 03:02:07;;;;;;;11.25;10.07;;;;;;;14.42;67.35;98750.56;4172866;28;20208;-57
2022/04/14 03:04:09;;;;;;;18.65;10.35;;;;;;;14.39;67.18;98756.63;4174256;28;20219;-57
2022/04/14 03:06:11;;;;;;;9.95;9.13;;;;;;;14.39;67.16;98756.63;4173916;28;20217;-58
2022/04/14 03:08:12;;;;;;;11.07;9.88;;;;;;;14.37;67.89;98747.78;4156837;28;20632;-55
2022/04/14 03:10:14;;;;;;;11.32;10.32;;;;;;;14.41;67.66;98759.94;4142480;28;20672;-58
2022/04/14 03:12:16;;;;;;;9.35;8.45;;;;;;;14.37;67.47;98747.78;4158797;28;20212;-56
2022/04/14 03:14:18;;;;;;;11.13;9.93;;;;;;;14.42;67.85;98750.56;4173434;28;20725;-58
2022/04/14 03:16:20;;;;;;;12.00;10.73;;;;;;;14.27;67.74;98753.28;4141137;28;20208;-56
2022/04/14 03:18:22;;;;;;;12.35;8.95;;;;;;;14.25;68.08;98749.13;4153264;28;20219;-56
2022/04/14 03:20:23;;;;;;;10.88;9.85;;;;;;;14.23;67.60;98757.63;4158491;28;20197;-56
2022/04/14 03:22:25;;;;;;;12.30;9.38;;;;;;;14.26;67.76;98759.03;4159641;28;20258;-56
2022/04/14 03:24:27;;;;;;;9.30;8.10;;;;;;;14.21;67.90;98754.34;4158652;28;20267;-56
2022/04/14 03:26:29;;;;;;;9.18;8.27;;;;;;;14.21;67.57;98756.25;4151792;28;20343;-57
2022/04/14 03:28:30;;;;;;;11.00;9.90;;;;;;;14.19;67.28;98762.03;4151285;28;20216;-57
2022/04/14 03:30:32;;;;;;;9.75;8.73;;;;;;;14.18;67.54;98759.50;4135831;28;20228;-56
2022/04/14 03:32:44;;;;;;;9.82;8.93;;;;;;;14.17;67.24;98768.88;4172495;28;20262;-57
2022/04/14 03:34:51;;;;;;;8.30;7.50;;;;;;;14.20;67.57;98769.19;4154879;28;20223;-57
2022/04/14 03:36:53;;;;;;;9.38;8.57;;;;;;;14.17;67.73;98771.63;4159207;28;20224;-57
2022/04/14 03:38:54;;;;;;;10.65;9.55;;;;;;;14.19;67.58;98763.97;4154826;28;20252;-56
2022/04/14 03:40:56;;;;;;;13.80;10.82;;;;;;;14.09;68.26;98764.69;4175368;28;20685;-57
2022/04/14 03:42:58;;;;;;;9.95;8.98;;;;;;;14.05;68.45;98760.00;4174164;28;20255;-57
2022/04/14 03:45:00;;;;;;;12.38;11.18;;;;;;;13.97;68.79;98763.25;4155385;28;20229;-56
2022/04/14 03:47:02;;;;;;;11.75;9.93;;;;;;;13.85;69.25;98755.19;4155046;28;20271;-57
2022/04/14 03:49:04;;;;;;;11.07;9.95;;;;;;;13.85;69.02;98760.72;4152148;28;20255;-56
2022/04/14 03:51:05;;;;;;;10.70;8.95;;;;;;;13.87;68.82;98766.75;4149991;28;20208;-57
2022/04/14 03:53:07;;;;;;;10.23;9.23;;;;;;;13.89;68.27;98766.50;4173142;28;20712;-56
2022/04/14 03:55:09;;;;;;;9.75;8.75;;;;;;;13.90;68.57;98768.97;4146487;28;20233;-56
2022/04/14 03:57:11;;;;;;;9.77;8.23;;;;;;;13.90;68.90;98768.97;4152527;28;20201;-57
2022/04/14 03:59:13;;;;;;;9.57;8.63;;;;;;;13.92;68.44;98771.47;4142954;28;20690;-57
2022/04/14 04:01:15;;;;;;;9.77;8.77;;;;;;;13.98;68.53;98775.91;4157791;28;20853;-57
2022/04/14 04:03:17;;;;;;;10.75;9.63;;;;;;;13.96;68.46;98767.91;4174561;28;21066;-57
2022/04/14 04:05:19;;;;;;;10.95;9.70;;;;;;;13.94;68.37;98770.09;4149416;28;20226;-57
2022/04/14 04:07:20;;;;;;;9.48;7.55;;;;;;;13.95;68.66;98771.75;4154700;28;20283;-57
2022/04/14 04:09:22;;;;;;;10.57;9.15;;;;;;;13.93;68.51;98771.22;4152733;28;20208;-56
2022/04/14 04:11:24;;;;;;;9.90;9.00;;;;;;;13.94;68.35;98770.09;4150731;28;20232;-56
2022/04/14 04:13:28;;;;;;;10.30;9.10;;;;;;;13.94;68.57;98775.63;4174753;28;20571;-56
2022/04/14 04:15:30;;;;;;;9.70;8.70;;;;;;;13.85;68.82;98770.88;4171347;28;20669;-56
2022/04/14 04:17:33;;;;;;;8.90;7.93;;;;;;;13.84;68.69;98775.53;4173181;28;20747;-56
2022/04/14 04:19:38;;;;;;;11.57;8.02;;;;;;;13.86;68.50;98767.88;4157404;28;20228;-56
2022/04/14 04:21:39;;;;;;;15.07;7.43;;;;;;;13.86;68.37;98778.88;4157849;28;20235;-56
2022/04/14 04:23:41;;;;;;;8.40;7.50;;;;;;;13.89;68.72;98777.50;4160514;28;20224;-56
2022/04/14 04:25:43;;;;;;;9.23;8.32;;;;;;;13.87;68.35;98791.53;4159733;28;20204;-56
2022/04/14 04:27:44;;;;;;;8.80;7.90;;;;;;;13.86;68.40;98789.88;4162042;28;20205;-56
2022/04/14 04:29:46;;;;;;;9.35;8.45;;;;;;;13.86;68.55;98778.03;4161468;28;20686;-56
2022/04/14 04:31:48;;;;;;;9.20;8.02;;;;;;;13.86;68.21;98784.38;4160719;28;20698;-56
2022/04/14 04:33:51;;;;;;;8.38;7.57;;;;;;;13.85;68.50;98790.97;4160953;28;20331;-56
2022/04/14 04:35:53;;;;;;;10.50;7.65;;;;;;;13.86;68.10;98792.63;4137770;28;20707;-56
2022/04/14 04:37:54;;;;;;;9.50;8.52;;;;;;;13.90;68.14;98785.47;4159640;28;20327;-56
2022/04/14 04:39:56;;;;;;;8.60;7.72;;;;;;;13.87;68.31;98786.03;4153115;28;20777;-56
2022/04/14 04:41:58;;;;;;;9.48;7.97;;;;;;;13.86;68.59;98787.13;4160891;28;20201;-56
2022/04/14 04:44:00;;;;;;;12.05;9.32;;;;;;;13.87;68.29;98794.28;4153888;28;20228;-56
2022/04/14 04:46:02;;;;;;;9.77;8.80;;;;;;;13.87;68.04;98802.53;4173332;28;20207;-56
2022/04/14 04:48:04;;;;;;;9.77;8.77;;;;;;;13.86;68.47;98805.53;4152740;28;20304;-56
2022/04/14 04:50:07;;;;;;;10.13;9.13;;;;;;;13.84;67.89;98808.53;4175471;28;20204;-56
2022/04/14 04:52:09;;;;;;;9.10;8.20;;;;;;;13.84;68.19;98796.72;4177873;28;20319;-56
2022/04/14 04:54:10;;;;;;;10.52;9.50;;;;;;;13.84;68.36;98808.53;4162014;28;20242;-56
2022/04/14 04:56:13;;;;;;;9.50;8.52;;;;;;;13.82;67.89;98810.72;4159657;28;20197;-56
2022/04/14 04:58:14;;;;;;;12.45;8.43;;;;;;;13.83;68.37;98812.38;4175585;28;20216;-56
2022/04/14 05:00:16;;;;;;;10.25;9.35;;;;;;;13.82;68.26;98815.41;4174492;28;20211;-56
2022/04/14 05:02:18;;;;;;;10.60;9.50;;;;;;;13.80;68.25;98812.09;4156182;28;20209;-56
2022/04/14 05:04:19;;;;;;;11.77;9.88;;;;;;;13.79;68.76;98816.78;4174743;28;20712;-56
2022/04/14 05:06:21;;;;;;;10.60;9.27;;;;;;;13.79;68.21;98821.44;4159660;28;20270;-56
2022/04/14 05:08:23;;;;;;;11.23;10.13;;;;;;;13.79;68.38;98821.44;4160985;28;20247;-56
2022/04/14 05:10:24;;;;;;;10.50;9.50;;;;;;;13.86;68.35;98819.28;4153954;28;20770;-56
2022/04/14 05:12:27;;;;;;;9.52;8.45;;;;;;;13.79;68.66;98822.28;4158315;28;20216;-56
2022/04/14 05:14:29;;;;;;;11.10;9.73;;;;;;;13.80;68.76;98823.94;4174664;28;20255;-56
2022/04/14 05:16:30;;;;;;;12.05;10.60;;;;;;;13.80;68.60;98823.09;4154919;28;20197;-56
2022/04/14 05:18:34;;;;;;;16.85;8.82;;;;;;;13.79;68.52;98826.94;4174202;28;20282;-56
2022/04/14 05:20:36;;;;;;;13.52;9.15;;;;;;;13.81;68.78;98828.34;4152480;28;20209;-56
2022/04/14 05:22:38;;;;;;;11.18;10.02;;;;;;;13.79;68.46;98836.03;4159504;28;20258;-56
2022/04/14 05:24:40;;;;;;;14.30;9.10;;;;;;;13.79;68.35;98836.03;4158325;28;20983;-56
2022/04/14 05:26:41;;;;;;;8.18;7.38;;;;;;;13.81;68.17;98835.75;4156303;28;20228;-56
2022/04/14 05:28:43;;;;;;;8.50;7.65;;;;;;;13.82;68.72;98832.75;4157308;28;20686;-56
2022/04/14 05:30:45;;;;;;;9.52;7.40;;;;;;;13.81;68.46;98836.59;4157077;28;20216;-56
2022/04/14 05:32:46;;;;;;;8.73;7.80;;;;;;;13.81;68.80;98839.34;4158346;28;20745;-56
2022/04/14 05:34:48;;;;;;;8.73;7.90;;;;;;;13.82;68.65;98843.75;4158084;28;20282;-56
2022/04/14 05:36:50;;;;;;;9.55;7.95;;;;;;;13.82;68.70;98838.25;4174547;28;20243;-56
2022/04/14 05:38:52;;;;;;;7.45;6.70;;;;;;;13.83;68.56;98839.91;4174192;28;20204;-56
2022/04/14 05:40:54;;;;;;;7.90;7.13;;;;;;;13.82;68.63;98838.25;4156864;28;20484;-56
2022/04/14 05:42:56;;;;;;;7.38;6.53;;;;;;;13.85;68.49;98845.16;4155767;28;20212;-56
2022/04/14 05:44:58;;;;;;;6.38;5.72;;;;;;;13.87;68.30;98843.78;4159902;28;20641;-56
2022/04/14 05:47:00;;;;;;;6.53;5.78;;;;;;;13.88;68.48;98845.44;4155757;28;20584;-56
2022/04/14 05:49:02;;;;;;;7.65;6.88;;;;;;;13.92;67.94;98843.84;4155982;28;20953;-56
2022/04/14 05:51:05;;;;;;;8.52;6.75;;;;;;;13.90;68.51;98846.00;4154213;28;20268;-56
2022/04/14 05:53:06;;;;;;;13.10;7.60;;;;;;;13.96;68.18;98847.72;4158974;28;20216;-56
2022/04/14 05:55:09;;;;;;;8.98;8.10;;;;;;;13.86;68.67;98838.53;4172581;28;20298;-56
2022/04/14 05:57:10;;;;;;;10.00;7.13;;;;;;;13.86;68.37;98844.06;4173651;28;20301;-56
2022/04/14 05:59:16;;;;;;;10.75;8.23;;;;;;;13.82;68.41;98838.25;4172907;28;20204;-56
2022/04/14 06:01:18;;;;;;;9.75;7.45;;;;;;;13.88;68.31;98842.69;4153966;28;20304;-56
2022/04/14 06:03:20;;;;;;;7.57;6.85;;;;;;;13.91;68.32;98842.16;4159160;28;20347;-56
2022/04/14 06:05:22;;;;;;;12.93;8.02;;;;;;;13.89;68.16;98844.34;4159531;28;20787;-56
2022/04/14 06:07:24;;;;;;;13.02;6.63;;;;;;;13.93;68.24;98853.75;4158419;28;20968;-56
2022/04/14 06:09:25;;;;;;;7.15;5.75;;;;;;;13.95;67.70;98861.72;4157758;28;20209;-56
2022/04/14 06:11:28;;;;;;;7.68;6.88;;;;;;;13.97;67.76;98851.31;4140104;28;20233;-56
2022/04/14 06:13:30;;;;;;;6.78;5.63;;;;;;;14.00;67.66;98857.09;4174640;28;20242;-56
2022/04/14 06:15:31;;;;;;;9.10;6.68;;;;;;;13.98;67.79;98856.53;4153625;28;20263;-55
2022/04/14 06:17:33;;;;;;;7.43;6.82;;;;;;;13.98;67.82;98852.94;4154962;28;20714;-56
2022/04/14 06:19:35;;;;;;;6.90;6.20;;;;;;;13.98;68.00;98845.50;4171573;28;20208;-58
2022/04/14 06:21:36;;;;;;;7.75;6.57;;;;;;;13.99;68.10;98843.59;4157056;28;20205;-55
2022/04/14 06:23:38;;;;;;;5.93;5.38;;;;;;;14.00;68.06;98840.59;4171731;28;20200;-56
2022/04/14 06:25:40;;;;;;;7.78;6.55;;;;;;;14.02;68.13;98849.41;4153740;28;20237;-56
2022/04/14 06:27:45;;;;;;;8.20;7.00;;;;;;;14.02;67.93;98854.91;4169322;28;20224;-56
2022/04/14 06:29:47;;;;;;;6.93;6.20;;;;;;;14.05;68.00;98854.41;4168968;28;20270;-56
2022/04/14 06:31:49;;;;;;;7.00;5.95;;;;;;;14.07;67.79;98848.59;4153911;28;20216;-56
2022/04/14 06:33:50;;;;;;;7.50;6.07;;;;;;;14.12;68.00;98855.00;4172282;28;20227;-56
2022/04/14 06:35:52;;;;;;;7.55;5.47;;;;;;;14.16;67.99;98861.63;4152056;28;20236;-56
2022/04/14 06:37:54;;;;;;;10.30;6.72;;;;;;;14.20;67.86;98859.19;4152524;28;20284;-55
2022/04/14 06:39:56;;;;;;;9.40;8.50;;;;;;;14.20;67.99;98862.78;4168467;28;20204;-56
2022/04/14 06:42:21;;;;;;;7.32;6.60;;;;;;;14.29;67.81;98863.94;4153744;28;20352;-56
2022/04/14 06:44:23;;;;;;;8.93;6.90;;;;;;;14.38;67.39;98859.59;4166459;28;20235;-56
2022/04/14 06:46:27;;;;;;;6.70;6.00;;;;;;;14.48;67.55;98864.31;4154264;28;20203;-56
2022/04/14 06:48:32;;;;;;;10.38;6.55;;;;;;;14.56;67.19;98850.88;4156716;28;20222;-56
2022/04/14 06:50:34;;;;;;;7.40;6.70;;;;;;;14.63;66.97;98856.97;4171468;28;20208;-56
2022/04/14 06:52:39;;;;;;;9.70;8.65;;;;;;;14.71;66.65;98859.22;4169808;28;20238;-56
2022/04/14 06:54:40;;;;;;;8.30;7.20;;;;;;;14.75;66.98;98848.50;4154718;28;20227;-56
2022/04/14 06:56:42;;;;;;;7.80;5.57;;;;;;;14.82;66.49;98860.94;4156965;28;20200;-56
2022/04/14 06:58:44;;;;;;;9.40;7.68;;;;;;;14.84;67.03;98861.47;4166318;28;20200;-56
2022/04/14 07:00:46;;;;;;;7.63;6.75;;;;;;;15.01;66.38;98858.53;4151396;28;20208;-56
2022/04/14 07:02:49;;;;;;;6.57;5.93;;;;;;;14.80;67.40;98868.66;4156007;28;20217;-56
2022/04/14 07:04:51;;;;;;;11.93;6.45;;;;;;;14.96;67.14;98859.34;4154889;28;20228;-56
2022/04/14 07:06:53;;;;;;;8.18;7.30;;;;;;;15.09;66.44;98866.28;4152049;28;20232;-56
2022/04/14 07:08:54;;;;;;;8.50;6.32;;;;;;;15.22;66.17;98865.78;4133630;28;20209;-56
2022/04/14 07:10:59;;;;;;;7.03;6.32;;;;;;;15.39;66.21;98861.72;4154834;28;20240;-57
2022/04/14 07:13:00;;;;;;;7.22;6.50;;;;;;;15.44;66.39;98869.19;4153469;28;20209;-56
2022/04/14 07:15:03;;;;;;;7.53;5.85;;;;;;;15.53;65.91;98871.13;4154295;28;20224;-56
2022/04/14 07:17:04;;;;;;;11.38;6.65;;;;;;;15.59;65.53;98872.78;4151031;28;20768;-56
2022/04/14 07:19:06;;;;;;;8.40;6.47;;;;;;;15.62;64.81;98866.72;4152009;28;20293;-56
2022/04/14 07:21:08;;;;;;;7.65;6.95;;;;;;;15.76;65.05;98873.34;4153868;28;20201;-56
2022/04/14 07:23:10;;;;;;;5.38;4.88;;;;;;;15.88;64.88;98876.69;4156532;28;20212;-56
2022/04/14 07:25:13;;;;;;;7.32;6.03;;;;;;;15.92;64.77;98876.97;4155073;28;20263;-55
2022/04/14 07:27:19;;;;;;;13.55;7.13;;;;;;;15.95;64.40;98871.72;4169988;28;20633;-56
2022/04/14 07:29:21;;;;;;;7.97;6.80;;;;;;;16.02;64.58;98883.31;4170104;28;20204;-56
2022/04/14 07:31:23;;;;;;;6.82;6.22;;;;;;;16.07;64.27;98883.31;4156595;28;20300;-56
2022/04/14 07:33:25;;;;;;;7.30;6.13;;;;;;;16.13;63.84;98892.41;4153631;28;20232;-56
2022/04/14 07:35:26;;;;;;;8.50;6.82;;;;;;;16.14;64.05;98885.78;4152697;28;20208;-56
2022/04/14 07:37:28;;;;;;;9.27;6.72;;;;;;;15.93;63.99;98898.78;4153919;28;20209;-56
2022/04/14 07:39:30;;;;;;;8.80;7.90;;;;;;;16.19;63.66;98894.91;4169952;28;20208;-56
2022/04/14 07:41:32;;;;;;;8.95;8.02;;;;;;;16.17;63.68;98897.09;4149432;28;20370;-55
2022/04/14 07:43:34;;;;;;;7.22;6.53;;;;;;;16.26;63.59;98900.16;4150364;28;20201;-56
2022/04/14 07:45:36;;;;;;;6.70;6.18;;;;;;;16.22;63.71;98905.41;4153657;28;20726;-56
2022/04/14 07:47:44;;;;;;;7.65;5.95;;;;;;;16.40;63.43;98904.88;4151802;28;20236;-56
2022/04/14 07:49:46;;;;;;;7.78;5.30;;;;;;;16.52;62.58;98905.41;4154710;28;20207;-56
2022/04/14 07:51:48;;;;;;;8.00;7.28;;;;;;;16.47;62.71;98902.66;4151410;28;21140;-56
2022/04/14 07:53:51;;;;;;;8.10;7.30;;;;;;;16.53;62.78;98912.59;4152496;28;20711;-56
2022/04/14 07:55:56;;;;;;;7.38;6.68;;;;;;;16.45;62.95;98906.78;4154651;28;20274;-56
2022/04/14 07:58:01;;;;;;;6.70;6.00;;;;;;;16.58;62.88;98904.31;4155841;28;20201;-56
2022/04/14 08:00:05;;;;;;;5.75;5.13;;;;;;;16.48;62.82;98915.34;4142219;28;20548;-56
2022/04/14 08:02:07;;;;;;;7.30;6.35;;;;;;;16.15;62.65;98910.38;4155489;28;20723;-56
2022/04/14 08:04:09;;;;;;;5.55;5.03;;;;;;;16.39;62.64;98921.72;4156616;28;20236;-56
2022/04/14 08:06:10;;;;;;;6.05;5.53;;;;;;;16.40;62.60;98917.84;4157608;28;20263;-56
2022/04/14 08:08:14;;;;;;;5.85;5.10;;;;;;;16.56;62.59;98928.59;4156835;28;20271;-56
2022/04/14 08:10:16;;;;;;;5.93;4.82;;;;;;;16.71;61.98;98923.06;4173119;28;20950;-56
2022/04/14 08:12:18;;;;;;;5.55;4.70;;;;;;;16.84;61.69;98930.75;4171468;28;20375;-55
2022/04/14 08:14:19;;;;;;;5.03;4.25;;;;;;;17.09;61.49;98923.22;4155030;28;20640;-56
2022/04/14 08:16:21;;;;;;;7.00;4.53;;;;;;;17.24;61.12;98930.63;4154733;28;20205;-56
2022/04/14 08:18:23;;;;;;;6.80;5.55;;;;;;;17.52;61.01;98932.75;4168020;28;20201;-56
2022/04/14 08:20:26;;;;;;;5.50;5.00;;;;;;;17.72;60.75;98938.19;4153161;28;20993;-56
2022/04/14 08:22:28;;;;;;;7.78;7.00;;;;;;;17.59;60.50;98930.50;4171558;28;20207;-56
2022/04/14 08:24:29;;;;;;;5.55;4.85;;;;;;;17.87;59.68;98935.31;4154873;28;20247;-56
2022/04/14 08:26:31;;;;;;;7.10;5.63;;;;;;;17.94;59.61;98930.28;4155437;28;20259;-56
2022/04/14 08:28:33;;;;;;;9.02;6.03;;;;;;;17.86;59.56;98933.66;4159973;28;20256;-56
2022/04/14 08:30:36;;;;;;;6.25;4.88;;;;;;;17.95;59.75;98938.31;4172677;28;20734;-55
2022/04/14 08:32:38;;;;;;;6.28;5.32;;;;;;;18.25;59.08;98937.28;4149791;28;20283;-55
2022/04/14 08:34:40;;;;;;;5.78;5.28;;;;;;;18.38;58.91;98942.19;4153625;28;20344;-55
2022/04/14 08:36:42;;;;;;;8.00;6.40;;;;;;;18.42;59.15;98938.53;4155322;28;20725;-54
2022/04/14 08:38:45;;;;;;;7.15;4.80;;;;;;;18.62;58.63;98948.59;4153527;28;20236;-55
2022/04/14 08:40:48;;;;;;;7.38;6.07;;;;;;;18.53;58.11;98945.63;4156060;28;20632;-55
2022/04/14 08:43:10;;;;;;;11.02;7.07;;;;;;;18.21;58.98;98938.94;4143426;28;20306;-55
2022/04/14 08:45:14;;;;;;;5.50;5.10;;;;;;;18.34;58.89;98938.31;4156655;28;20232;-55
2022/04/14 08:47:17;;;;;;;5.82;5.22;;;;;;;18.55;58.40;98943.41;4155662;28;20307;-54
2022/04/14 08:49:19;;;;;;;8.98;5.88;;;;;;;18.57;58.28;98946.72;4171384;28;20632;-55
2022/04/14 08:51:22;;;;;;;5.28;4.70;;;;;;;18.66;58.15;98949.69;4157026;28;20866;-55
2022/04/14 08:53:24;;;;;;;18.95;8.25;;;;;;;18.67;57.80;98948.56;4159477;28;20213;-55
2022/04/14 08:55:27;;;;;;;7.78;6.05;;;;;;;18.40;58.42;98946.31;4152456;28;20208;-56
2022/04/14 08:57:29;;;;;;;6.47;5.30;;;;;;;18.70;58.03;98953.50;4173143;28;20197;-56
2022/04/14 08:59:31;;;;;;;6.18;5.68;;;;;;;18.86;58.10;98955.03;4156247;28;20212;-55
2022/04/14 09:01:34;;;;;;;7.10;6.32;;;;;;;18.74;57.67;98957.38;4170914;28;20238;-56
2022/04/14 09:03:37;;;;;;;6.35;4.32;;;;;;;18.71;57.01;98950.44;4155265;28;20232;-55
2022/04/14 09:05:39;;;;;;;6.35;5.68;;;;;;;18.77;56.83;98956.81;4137304;28;20202;-55
2022/04/14 09:07:41;;;;;;;6.50;5.50;;;;;;;18.89;56.90;98959.97;4154085;28;20564;-55
2022/04/14 09:09:46;;;;;;;4.80;4.40;;;;;;;18.90;56.59;98956.91;4156750;28;20201;-55
2022/04/14 09:11:47;;;;;;;7.63;4.78;;;;;;;19.10;56.71;98961.41;4171616;28;20227;-56
2022/04/14 09:13:49;;;;;;;6.82;5.35;;;;;;;19.17;56.65;98964.69;4174196;28;20230;-56
2022/04/14 09:15:51;;;;;;;5.35;4.85;;;;;;;19.17;55.87;98962.72;4139300;28;20558;-56
2022/04/14 09:17:54;;;;;;;5.25;4.75;;;;;;;19.03;56.57;98963.72;4157854;28;20220;-55
2022/04/14 09:19:58;;;;;;;4.88;3.92;;;;;;;18.35;57.22;98959.38;4157501;28;20405;-54
2022/04/14 09:22:11;;;;;;;6.28;5.10;;;;;;;17.98;57.47;98953.53;4151571;28;20279;-54
2022/04/14 09:24:13;;;;;;;5.25;4.70;;;;;;;17.83;58.13;98961.91;4151786;28;20236;-55
2022/04/14 09:26:22;;;;;;;4.57;4.18;;;;;;;17.79;58.78;98966.38;4133658;28;20645;-55
2022/04/14 09:28:24;;;;;;;4.47;4.07;;;;;;;17.81;58.27;98953.91;4172584;28;20660;-54
2022/04/14 09:30:25;;;;;;;4.47;4.05;;;;;;;17.75;58.48;98957.81;4150545;28;20212;-55
2022/04/14 09:32:34;;;;;;;5.13;4.55;;;;;;;17.83;58.13;98956.38;4133693;28;20703;-55